createdAt,value
2022-10-07T00:00:43.776Z,19.78
2022-10-07T00:03:10.541Z,19.70
2022-10-07T00:05:37.007Z,19.79
2022-10-07T00:08:03.728Z,19.72
2022-10-07T00:10:30.193Z,19.70
2022-10-07T00:12:57.101Z,19.59
2022-10-07T00:15:23.726Z,19.58
2022-10-07T00:17:50.199Z,19.57
2022-10-07T00:20:16.742Z,19.38
2022-10-07T00:22:43.630Z,19.49
2022-10-07T00:25:10.221Z,19.37
2022-10-07T00:27:37.193Z,19.25
2022-10-07T00:30:04.214Z,19.43
2022-10-07T00:32:30.704Z,19.46
2022-10-07T00:34:57.529Z,19.32
2022-10-07T00:37:24.028Z,19.37
2022-10-07T00:39:50.534Z,19.20
2022-10-07T00:42:17.998Z,19.32
2022-10-07T00:44:45.595Z,19.29
2022-10-07T00:47:21.037Z,19.26
2022-10-07T00:49:57.027Z,19.15
2022-10-07T00:52:28.256Z,19.14
2022-10-07T00:54:57.172Z,19.17
2022-10-07T00:57:26.657Z,19.20
2022-10-07T00:59:55.534Z,19.16
2022-10-07T01:02:25.081Z,19.14
2022-10-07T01:04:53.411Z,19.12
2022-10-07T01:07:21.711Z,19.17
2022-10-07T01:09:51.374Z,19.18
2022-10-07T01:12:59.531Z,19.06
2022-10-07T01:15:36.356Z,19.14
2022-10-07T01:18:08.694Z,18.19
2022-10-07T01:20:45.190Z,18.94
2022-10-07T01:23:32.685Z,18.83
2022-10-07T01:26:14.213Z,18.80
2022-10-07T01:28:51.825Z,18.80
2022-10-07T01:31:24.963Z,18.86
2022-10-07T01:33:53.532Z,18.67
2022-10-07T01:36:23.806Z,18.71
2022-10-07T01:39:02.701Z,18.52
2022-10-07T01:41:31.510Z,18.43
2022-10-07T01:44:01.071Z,18.63
2022-10-07T01:46:28.541Z,18.58
2022-10-07T01:48:56.102Z,18.55
2022-10-07T01:51:25.955Z,18.54
2022-10-07T01:54:04.201Z,18.41
2022-10-07T01:57:04.634Z,18.59
2022-10-07T01:59:53.119Z,18.48
2022-10-07T02:02:38.134Z,18.49
2022-10-07T02:05:26.404Z,18.50
2022-10-07T02:07:55.912Z,18.54
2022-10-07T02:10:40.047Z,18.65
2022-10-07T02:13:17.772Z,18.57
2022-10-07T02:16:18.879Z,18.71
2022-10-07T02:18:50.132Z,18.56
2022-10-07T02:21:21.163Z,18.63
2022-10-07T02:23:49.388Z,18.68
2022-10-07T02:26:21.087Z,18.33
2022-10-07T02:28:52.255Z,18.44
2022-10-07T02:31:23.864Z,18.43
2022-10-07T02:33:54.003Z,18.40
2022-10-07T02:36:35.931Z,18.49
2022-10-07T02:39:03.694Z,18.48
2022-10-07T02:41:51.089Z,18.41
2022-10-07T02:44:29.026Z,18.50
2022-10-07T02:47:04.294Z,18.34
2022-10-07T02:49:33.796Z,18.44
2022-10-07T02:52:05.482Z,18.47
2022-10-07T02:54:42.695Z,18.43
2022-10-07T02:57:12.240Z,18.39
2022-10-07T02:59:40.442Z,18.40
2022-10-07T03:02:12.254Z,18.53
2022-10-07T03:04:38.888Z,18.46
2022-10-07T03:07:05.452Z,18.40
2022-10-07T03:09:32.165Z,18.38
2022-10-07T03:11:58.662Z,18.42
2022-10-07T03:14:25.314Z,18.42
2022-10-07T03:16:52.785Z,18.39
2022-10-07T03:19:19.472Z,18.37
2022-10-07T03:21:46.037Z,18.31
2022-10-07T03:24:12.690Z,18.32
2022-10-07T03:26:39.750Z,18.23
2022-10-07T03:29:08.293Z,18.02
2022-10-07T03:31:35.338Z,17.98
2022-10-07T03:34:01.917Z,18.01
2022-10-07T03:36:28.792Z,17.83
2022-10-07T03:38:55.965Z,17.87
2022-10-07T03:41:22.528Z,17.90
2022-10-07T03:43:49.028Z,17.84
2022-10-07T03:46:16.738Z,17.65
2022-10-07T03:48:43.274Z,17.91
2022-10-07T03:51:09.816Z,17.97
2022-10-07T03:53:38.891Z,17.93
2022-10-07T03:56:05.567Z,17.93
2022-10-07T03:58:32.082Z,17.94
2022-10-07T04:01:10.272Z,17.73
2022-10-07T04:03:37.324Z,17.58
2022-10-07T04:06:03.995Z,17.50
2022-10-07T04:08:32.880Z,17.50
2022-10-07T04:11:00.719Z,17.81
2022-10-07T04:13:27.756Z,17.80
2022-10-07T04:15:54.890Z,18.00
2022-10-07T04:18:22.036Z,17.96
2022-10-07T04:20:48.680Z,17.79
2022-10-07T04:23:16.463Z,17.78
2022-10-07T04:25:44.458Z,17.84
2022-10-07T04:28:24.249Z,17.89
2022-10-07T04:30:53.988Z,17.93
2022-10-07T04:33:23.922Z,17.82
2022-10-07T04:35:51.346Z,17.90
2022-10-07T04:38:18.857Z,17.93
2022-10-07T04:40:48.124Z,17.92
2022-10-07T04:43:26.962Z,17.63
2022-10-07T04:46:00.046Z,17.71
2022-10-07T04:48:27.165Z,17.66
2022-10-07T04:50:53.771Z,17.58
2022-10-07T04:53:21.047Z,17.82
2022-10-07T04:55:51.758Z,17.74
2022-10-07T04:58:19.210Z,17.80
2022-10-07T05:00:51.912Z,17.82
2022-10-07T05:03:20.493Z,17.86
2022-10-07T05:05:49.968Z,17.80
2022-10-07T05:08:18.171Z,17.84
2022-10-07T05:10:45.004Z,17.77
2022-10-07T05:13:14.356Z,17.86
2022-10-07T05:15:57.454Z,17.87
2022-10-07T05:18:26.419Z,17.82
2022-10-07T05:20:53.876Z,17.84
2022-10-07T05:23:28.044Z,17.82
2022-10-07T05:26:04.579Z,17.71
2022-10-07T05:28:31.287Z,17.76
2022-10-07T05:31:09.269Z,17.91
2022-10-07T05:33:35.898Z,17.70
2022-10-07T05:36:03.051Z,17.76
2022-10-07T05:38:29.700Z,17.61
2022-10-07T05:41:00.652Z,17.20
2022-10-07T05:43:28.966Z,17.20
2022-10-07T05:46:03.913Z,17.12
2022-10-07T05:48:36.610Z,17.20
2022-10-07T05:51:06.174Z,17.21
2022-10-07T05:53:32.720Z,17.32
2022-10-07T05:55:59.221Z,17.23
2022-10-07T05:58:25.750Z,17.34
2022-10-07T06:00:54.542Z,17.34
2022-10-07T06:03:22.300Z,17.42
2022-10-07T06:05:50.869Z,17.26
2022-10-07T06:08:19.344Z,17.09
2022-10-07T06:11:05.535Z,17.09
2022-10-07T06:13:32.635Z,17.17
2022-10-07T06:16:08.081Z,17.19
2022-10-07T06:18:38.328Z,17.60
2022-10-07T06:21:05.928Z,17.74
2022-10-07T06:23:33.429Z,17.77
2022-10-07T06:26:01.326Z,17.94
2022-10-07T06:28:32.618Z,18.01
2022-10-07T06:30:59.547Z,17.90
2022-10-07T06:33:26.206Z,17.98
2022-10-07T06:35:59.791Z,18.02
2022-10-07T06:38:28.831Z,18.18
2022-10-07T06:40:59.521Z,18.27
2022-10-07T06:43:26.708Z,18.25
2022-10-07T06:45:56.153Z,18.33
2022-10-07T06:48:23.068Z,18.47
2022-10-07T06:50:53.381Z,18.55
2022-10-07T06:53:20.196Z,18.74
2022-10-07T06:55:47.241Z,18.75
2022-10-07T06:58:13.717Z,18.83
2022-10-07T07:00:40.364Z,18.72
2022-10-07T07:03:06.993Z,18.89
2022-10-07T07:05:41.493Z,19.16
2022-10-07T07:08:11.837Z,19.12
2022-10-07T07:10:40.378Z,19.21
2022-10-07T07:13:07.641Z,19.25
2022-10-07T07:15:34.921Z,19.35
2022-10-07T07:18:02.083Z,19.24
2022-10-07T07:20:35.119Z,19.30
2022-10-07T07:23:02.305Z,19.29
2022-10-07T07:25:29.022Z,19.22
2022-10-07T07:27:57.881Z,19.35
2022-10-07T07:30:24.963Z,19.49
2022-10-07T07:32:51.587Z,19.49
2022-10-07T07:35:18.345Z,19.52
2022-10-07T07:37:46.131Z,19.58
2022-10-07T07:40:13.014Z,19.72
2022-10-07T07:42:39.625Z,19.63
2022-10-07T07:45:06.635Z,19.66
2022-10-07T07:47:35.541Z,19.74
2022-10-07T07:50:03.832Z,19.60
2022-10-07T07:52:30.327Z,19.74
2022-10-07T07:54:58.985Z,19.84
2022-10-07T07:57:27.234Z,19.65
2022-10-07T07:59:55.170Z,19.74
2022-10-07T08:02:23.499Z,19.80
2022-10-07T08:04:50.922Z,20.12
2022-10-07T08:07:17.475Z,19.70
2022-10-07T08:09:44.050Z,19.92
2022-10-07T08:12:11.518Z,20.14
2022-10-07T08:14:38.933Z,20.26
2022-10-07T08:17:05.425Z,20.19
2022-10-07T08:19:32.300Z,19.94
2022-10-07T08:21:59.043Z,20.15
2022-10-07T08:24:25.830Z,20.18
2022-10-07T08:26:53.679Z,20.42
2022-10-07T08:29:21.576Z,20.48
2022-10-07T08:31:48.905Z,20.46
2022-10-07T08:34:15.694Z,20.57
2022-10-07T08:36:47.040Z,20.37
2022-10-07T08:39:14.887Z,20.06
2022-10-07T08:41:49.200Z,20.41
2022-10-07T08:44:18.522Z,20.85
2022-10-07T08:46:54.465Z,20.46
2022-10-07T08:49:30.742Z,20.67
2022-10-07T08:52:19.159Z,20.89
2022-10-07T08:54:45.654Z,20.99
2022-10-07T08:57:44.649Z,20.72
2022-10-07T09:00:15.203Z,21.07
2022-10-07T09:02:56.606Z,20.95
2022-10-07T09:05:28.260Z,20.96
2022-10-07T09:07:59.541Z,21.37
2022-10-07T09:10:37.432Z,21.12
2022-10-07T09:13:12.594Z,21.34
2022-10-07T09:15:49.378Z,21.03
2022-10-07T09:18:28.421Z,21.20
2022-10-07T09:20:56.466Z,21.10
2022-10-07T09:23:34.623Z,21.31
2022-10-07T09:26:01.719Z,21.69
2022-10-07T09:28:30.624Z,21.70
2022-10-07T09:31:00.848Z,21.81
2022-10-07T09:33:29.857Z,21.79
2022-10-07T09:36:06.740Z,21.80
2022-10-07T09:38:44.377Z,21.77
2022-10-07T09:41:16.857Z,21.71
2022-10-07T09:43:56.702Z,22.00
2022-10-07T09:46:39.113Z,21.93
2022-10-07T09:49:06.093Z,21.83
2022-10-07T09:51:35.208Z,21.85
2022-10-07T09:54:04.526Z,21.98
2022-10-07T09:56:36.649Z,22.05
2022-10-07T09:59:24.211Z,22.29
2022-10-07T10:02:14.397Z,22.35
2022-10-07T10:04:53.125Z,22.55
2022-10-07T10:07:36.550Z,22.35
2022-10-07T10:10:18.035Z,22.45
2022-10-07T10:12:52.904Z,22.42
2022-10-07T10:15:30.636Z,22.57
2022-10-07T10:17:58.548Z,22.63
2022-10-07T10:20:44.622Z,22.87
2022-10-07T10:23:34.549Z,22.85
2022-10-07T10:26:28.291Z,23.02
2022-10-07T10:29:08.143Z,22.75
2022-10-07T10:32:00.671Z,23.31
2022-10-07T10:35:01.954Z,23.39
2022-10-07T10:37:42.021Z,22.94
2022-10-07T10:40:14.314Z,23.30
2022-10-07T10:43:17.864Z,23.69
2022-10-07T10:45:49.556Z,23.78
2022-10-07T10:48:32.920Z,23.62
2022-10-07T10:51:39.976Z,23.58
2022-10-07T10:54:31.577Z,23.78
2022-10-07T10:57:17.084Z,23.80
2022-10-07T11:00:01.816Z,23.94
2022-10-07T11:02:37.515Z,24.12
2022-10-07T11:05:22.800Z,23.93
2022-10-07T11:07:55.419Z,23.91
2022-10-07T11:10:24.291Z,24.25
2022-10-07T11:12:59.129Z,24.15
2022-10-07T11:15:34.360Z,23.90
2022-10-07T11:18:23.015Z,24.00
2022-10-07T11:20:50.890Z,24.07
2022-10-07T11:23:32.207Z,24.19
2022-10-07T11:26:13.110Z,24.24
2022-10-07T11:28:43.042Z,24.34
2022-10-07T11:31:12.233Z,24.34
2022-10-07T11:33:49.256Z,24.40
2022-10-07T11:36:32.564Z,24.62
2022-10-07T11:38:59.143Z,24.59
2022-10-07T11:41:33.391Z,24.53
2022-10-07T11:44:16.206Z,24.64
2022-10-07T11:46:45.625Z,24.92
2022-10-07T11:49:24.710Z,24.90
2022-10-07T11:52:08.382Z,24.95
2022-10-07T11:54:53.264Z,24.88
2022-10-07T11:57:24.558Z,25.14
2022-10-07T11:59:58.562Z,25.51
2022-10-07T12:02:28.074Z,25.42
2022-10-07T12:04:59.624Z,25.38
2022-10-07T12:07:32.213Z,25.35
2022-10-07T12:10:04.934Z,25.32
2022-10-07T12:12:47.425Z,25.34
2022-10-07T12:15:29.442Z,25.25
2022-10-07T12:18:18.913Z,25.52
2022-10-07T12:20:52.569Z,25.40
2022-10-07T12:23:19.265Z,25.46
2022-10-07T12:25:50.410Z,25.62
2022-10-07T12:28:26.254Z,25.44
2022-10-07T12:30:55.930Z,25.48
2022-10-07T12:33:33.154Z,25.40
2022-10-07T12:36:22.409Z,25.64
2022-10-07T12:39:01.012Z,25.35
2022-10-07T12:41:38.840Z,25.47
2022-10-07T12:44:25.045Z,25.32
2022-10-07T12:46:53.191Z,25.58
2022-10-07T12:49:31.688Z,25.58
2022-10-07T12:52:04.528Z,25.52
2022-10-07T12:54:37.636Z,25.71
2022-10-07T12:57:12.065Z,25.36
2022-10-07T13:00:05.647Z,25.55
2022-10-07T13:03:09.653Z,25.72
2022-10-07T13:05:54.991Z,25.47
2022-10-07T13:08:30.607Z,25.47
2022-10-07T13:11:15.931Z,25.55
2022-10-07T13:13:53.781Z,25.68
2022-10-07T13:16:23.822Z,25.69
2022-10-07T13:19:15.458Z,25.51
2022-10-07T13:21:51.083Z,25.70
2022-10-07T13:24:24.432Z,25.81
2022-10-07T13:26:52.254Z,25.74
2022-10-07T13:29:26.190Z,25.82
2022-10-07T13:32:32.157Z,25.64
2022-10-07T13:35:01.288Z,25.53
2022-10-07T13:37:35.370Z,25.54
2022-10-07T13:40:20.677Z,25.60
2022-10-07T13:42:56.725Z,25.53
2022-10-07T13:45:23.602Z,25.47
2022-10-07T13:47:50.413Z,25.46
2022-10-07T13:50:20.951Z,25.42
2022-10-07T13:52:49.751Z,25.40
2022-10-07T13:55:35.910Z,25.67
2022-10-07T13:58:05.426Z,25.80
2022-10-07T14:00:33.962Z,25.96
2022-10-07T14:03:01.913Z,25.81
2022-10-07T14:05:31.423Z,25.45
2022-10-07T14:08:16.226Z,25.51
2022-10-07T14:10:56.296Z,25.67
2022-10-07T14:13:22.979Z,26.05
2022-10-07T14:15:55.860Z,26.09
2022-10-07T14:18:23.387Z,26.02
2022-10-07T14:20:55.293Z,25.95
2022-10-07T14:23:28.318Z,26.08
2022-10-07T14:25:57.746Z,26.28
2022-10-07T14:28:24.263Z,26.19
2022-10-07T14:31:27.911Z,25.99
2022-10-07T14:34:35.713Z,26.08
2022-10-07T14:37:08.100Z,26.17
2022-10-07T14:39:38.609Z,26.28
2022-10-07T14:42:10.814Z,26.21
2022-10-07T14:44:37.604Z,26.41
2022-10-07T14:47:06.078Z,26.48
2022-10-07T14:49:33.029Z,26.33
2022-10-07T14:52:00.684Z,26.29
2022-10-07T14:54:27.509Z,26.45
2022-10-07T14:56:53.999Z,25.71
2022-10-07T14:59:20.785Z,26.06
2022-10-07T15:01:48.026Z,26.00
2022-10-07T15:04:15.910Z,25.88
2022-10-07T15:06:45.379Z,25.71
2022-10-07T15:09:16.509Z,26.22
2022-10-07T15:11:44.480Z,25.63
2022-10-07T15:14:12.172Z,25.78
2022-10-07T15:16:39.298Z,25.56
2022-10-07T15:19:05.912Z,25.72
2022-10-07T15:21:32.456Z,25.53
2022-10-07T15:24:01.705Z,25.72
2022-10-07T15:26:28.657Z,25.92
2022-10-07T15:28:57.466Z,25.84
2022-10-07T15:31:27.386Z,25.74
2022-10-07T15:33:57.227Z,25.60
2022-10-07T15:36:29.016Z,25.57
2022-10-07T15:38:56.127Z,25.53
2022-10-07T15:41:39.898Z,25.48
2022-10-07T15:44:11.981Z,25.44
2022-10-07T15:46:38.566Z,25.37
2022-10-07T15:49:05.663Z,25.51
2022-10-07T15:51:32.206Z,25.57
2022-10-07T15:53:59.223Z,25.70
2022-10-07T15:56:25.725Z,25.54
2022-10-07T15:58:53.179Z,25.62
2022-10-07T16:01:20.837Z,25.52
2022-10-07T16:03:49.508Z,25.27
2022-10-07T16:06:21.809Z,25.36
2022-10-07T16:08:49.938Z,25.62
2022-10-07T16:11:17.755Z,25.06
2022-10-07T16:13:47.300Z,24.74
2022-10-07T16:16:17.540Z,24.82
2022-10-07T16:18:46.132Z,24.77
2022-10-07T16:21:15.194Z,24.98
2022-10-07T16:23:45.815Z,24.87
2022-10-07T16:26:17.990Z,24.52
2022-10-07T16:29:05.032Z,24.68
2022-10-07T16:31:33.160Z,24.73
2022-10-07T16:33:59.784Z,24.76
2022-10-07T16:36:27.008Z,24.90
2022-10-07T16:38:54.338Z,24.92
2022-10-07T16:41:21.444Z,24.85
2022-10-07T16:43:48.103Z,24.71
2022-10-07T16:46:20.730Z,24.82
2022-10-07T16:48:49.580Z,24.77
2022-10-07T16:51:21.983Z,24.70
2022-10-07T16:53:50.659Z,24.67
2022-10-07T16:56:19.763Z,24.64
2022-10-07T16:58:47.054Z,24.84
2022-10-07T17:01:17.239Z,24.56
2022-10-07T17:03:46.907Z,24.33
2022-10-07T17:06:15.027Z,24.34
2022-10-07T17:08:46.269Z,24.33
2022-10-07T17:11:29.807Z,24.20
2022-10-07T17:13:57.846Z,24.17
2022-10-07T17:16:25.824Z,24.08
2022-10-07T17:18:52.621Z,24.17
2022-10-07T17:21:20.020Z,24.13
2022-10-07T17:23:47.809Z,24.07
2022-10-07T17:26:18.052Z,24.25
2022-10-07T17:28:44.874Z,24.23
2022-10-07T17:31:13.453Z,24.05
2022-10-07T17:33:42.357Z,24.00
2022-10-07T17:36:10.675Z,24.17
2022-10-07T17:38:41.140Z,23.99
2022-10-07T17:41:15.844Z,23.95
2022-10-07T17:43:42.490Z,23.98
2022-10-07T17:46:12.912Z,23.87
2022-10-07T17:48:48.218Z,23.57
2022-10-07T17:51:16.515Z,23.43
2022-10-07T17:53:43.324Z,23.30
2022-10-07T17:56:11.936Z,23.17
2022-10-07T17:58:40.327Z,23.52
2022-10-07T18:01:16.054Z,23.43
2022-10-07T18:03:43.521Z,23.49
2022-10-07T18:06:11.558Z,23.44
2022-10-07T18:08:41.721Z,23.15
2022-10-07T18:11:09.275Z,23.33
2022-10-07T18:13:54.545Z,22.66
2022-10-07T18:16:22.094Z,23.41
2022-10-07T18:18:54.886Z,23.51
2022-10-07T18:21:22.517Z,23.62
2022-10-07T18:23:53.009Z,23.23
2022-10-07T18:26:19.512Z,23.29
2022-10-07T18:28:46.803Z,23.52
2022-10-07T18:31:16.163Z,23.68
2022-10-07T18:33:43.299Z,23.48
2022-10-07T18:36:13.112Z,23.63
2022-10-07T18:38:41.723Z,23.33
2022-10-07T18:41:11.236Z,23.56
2022-10-07T18:43:38.160Z,23.67
2022-10-07T18:46:11.060Z,23.62
2022-10-07T18:48:41.710Z,23.78
2022-10-07T18:51:10.494Z,23.64
2022-10-07T18:53:38.891Z,23.43
2022-10-07T18:56:08.198Z,23.34
2022-10-07T18:58:40.602Z,23.61
2022-10-07T19:01:08.240Z,23.56
2022-10-07T19:03:35.030Z,23.30
2022-10-07T19:06:10.488Z,23.10
2022-10-07T19:08:37.472Z,23.25
2022-10-07T19:11:09.428Z,22.93
2022-10-07T19:13:48.523Z,23.12
2022-10-07T19:16:23.754Z,23.11
2022-10-07T19:18:55.414Z,23.20
2022-10-07T19:21:23.613Z,23.05
2022-10-07T19:23:54.648Z,23.45
2022-10-07T19:26:24.393Z,23.50
2022-10-07T19:28:54.264Z,23.49
2022-10-07T19:31:27.378Z,23.42
2022-10-07T19:34:02.563Z,23.19
2022-10-07T19:36:31.687Z,23.11
2022-10-07T19:38:58.656Z,23.19
2022-10-07T19:41:29.628Z,23.43
2022-10-07T19:43:58.219Z,23.16
2022-10-07T19:46:27.101Z,23.09
2022-10-07T19:48:57.414Z,23.27
2022-10-07T19:51:25.792Z,23.23
2022-10-07T19:53:52.990Z,23.33
2022-10-07T19:56:20.879Z,23.13
2022-10-07T19:58:52.535Z,23.42
2022-10-07T20:01:27.697Z,23.17
2022-10-07T20:03:59.277Z,23.21
2022-10-07T20:06:26.760Z,23.13
2022-10-07T20:08:54.624Z,23.23
2022-10-07T20:11:21.332Z,23.27
2022-10-07T20:13:47.974Z,23.45
2022-10-07T20:16:18.780Z,23.37
2022-10-07T20:18:51.031Z,23.28
2022-10-07T20:21:22.148Z,23.13
2022-10-07T20:23:48.862Z,23.10
2022-10-07T20:26:19.010Z,23.05
2022-10-07T20:28:47.897Z,23.03
2022-10-07T20:31:15.993Z,23.10
2022-10-07T20:33:47.962Z,23.25
2022-10-07T20:36:17.137Z,23.15
2022-10-07T20:39:02.692Z,22.94
2022-10-07T20:41:48.742Z,23.08
2022-10-07T20:44:17.064Z,22.94
2022-10-07T20:46:44.444Z,22.99
2022-10-07T20:49:25.488Z,23.08
2022-10-07T20:51:54.376Z,22.97
2022-10-07T20:54:22.707Z,22.79
2022-10-07T20:56:51.598Z,22.81
2022-10-07T20:59:18.127Z,22.66
2022-10-07T21:01:44.926Z,22.53
2022-10-07T21:04:14.226Z,22.66
2022-10-07T21:06:42.206Z,22.61
2022-10-07T21:09:09.434Z,22.78
2022-10-07T21:11:36.475Z,22.63
2022-10-07T21:14:03.024Z,22.11
2022-10-07T21:16:31.328Z,22.36
2022-10-07T21:18:58.583Z,22.73
2022-10-07T21:21:25.629Z,22.92
2022-10-07T21:23:52.897Z,23.07
2022-10-07T21:26:20.306Z,22.99
2022-10-07T21:28:48.414Z,22.96
2022-10-07T21:31:17.738Z,23.00
2022-10-07T21:33:46.610Z,22.84
2022-10-07T21:36:18.486Z,22.63
2022-10-07T21:38:46.982Z,22.90
2022-10-07T21:41:21.982Z,23.04
2022-10-07T21:43:52.647Z,23.09
2022-10-07T21:46:20.734Z,23.18
2022-10-07T21:48:47.688Z,23.16
2022-10-07T21:51:14.728Z,23.18
2022-10-07T21:53:41.211Z,23.19
2022-10-07T21:56:11.362Z,23.31
2022-10-07T21:58:38.233Z,23.15
2022-10-07T22:01:12.729Z,23.23
2022-10-07T22:03:39.287Z,23.12
2022-10-07T22:06:11.098Z,23.07
2022-10-07T22:08:39.583Z,23.11
2022-10-07T22:11:13.369Z,22.86
2022-10-07T22:13:45.902Z,22.92
2022-10-07T22:16:15.584Z,23.08
2022-10-07T22:18:44.306Z,22.95
2022-10-07T22:21:23.420Z,22.96
2022-10-07T22:23:55.237Z,23.03
2022-10-07T22:26:24.769Z,22.95
2022-10-07T22:28:52.095Z,22.91
2022-10-07T22:31:19.478Z,22.77
2022-10-07T22:33:54.173Z,22.69
2022-10-07T22:36:22.038Z,22.72
2022-10-07T22:38:49.097Z,22.77
2022-10-07T22:41:17.841Z,23.12
2022-10-07T22:43:46.420Z,23.11
2022-10-07T22:46:18.105Z,23.03
2022-10-07T22:48:48.481Z,22.88
2022-10-07T22:51:16.308Z,23.16
2022-10-07T22:53:47.927Z,23.17
2022-10-07T22:56:17.539Z,23.24
2022-10-07T22:58:50.114Z,23.05
2022-10-07T23:01:17.354Z,23.01
2022-10-07T23:03:44.569Z,23.06
2022-10-07T23:06:13.402Z,22.97
2022-10-07T23:08:40.488Z,22.82
2022-10-07T23:11:08.026Z,22.80
2022-10-07T23:13:37.087Z,22.80
2022-10-07T23:16:07.541Z,22.61
2022-10-07T23:18:34.130Z,22.62
2022-10-07T23:21:02.656Z,22.54
2022-10-07T23:23:30.151Z,22.61
2022-10-07T23:25:57.018Z,22.55
2022-10-07T23:28:25.815Z,22.47
2022-10-07T23:30:53.105Z,22.42
2022-10-07T23:33:20.292Z,22.51
2022-10-07T23:35:46.847Z,22.17
2022-10-07T23:38:13.479Z,21.90
2022-10-07T23:40:40.778Z,22.26
2022-10-07T23:43:08.419Z,22.37
2022-10-07T23:45:34.970Z,22.63
2022-10-07T23:48:01.801Z,22.71
2022-10-07T23:50:28.499Z,22.64
2022-10-07T23:52:54.989Z,22.79
2022-10-07T23:55:21.565Z,22.48
2022-10-07T23:57:48.234Z,22.38
